createdAt,value
2018-09-30T00:01:09.249Z,10.90
2018-09-30T00:03:37.501Z,11.20
2018-09-30T00:06:05.718Z,11.40
2018-09-30T00:11:02.105Z,11.50
2018-09-30T00:13:30.387Z,11.50
2018-09-30T00:15:58.665Z,11.50
2018-09-30T00:18:26.879Z,11.30
2018-09-30T00:20:55.139Z,11.40
2018-09-30T00:23:23.354Z,11.40
2018-09-30T00:25:56.972Z,11.40
2018-09-30T00:28:25.266Z,10.90
2018-09-30T00:30:53.492Z,11.00
2018-09-30T00:35:49.735Z,11.40
2018-09-30T00:38:17.954Z,11.20
2018-09-30T00:40:46.181Z,11.20
2018-09-30T00:43:14.407Z,11.30
2018-09-30T00:45:42.633Z,11.30
2018-09-30T00:48:10.861Z,11.30
2018-09-30T00:50:39.139Z,11.30
2018-09-30T00:53:07.449Z,11.30
2018-09-30T00:55:35.688Z,11.20
2018-09-30T01:00:31.949Z,11.10
2018-09-30T01:03:00.211Z,11.40
2018-09-30T01:05:28.796Z,11.50
2018-09-30T01:07:57.099Z,11.50
2018-09-30T01:12:53.293Z,11.20
2018-09-30T01:15:21.570Z,11.20
2018-09-30T01:17:49.794Z,11.20
2018-09-30T01:20:18.045Z,11.40
2018-09-30T01:22:46.326Z,11.60
2018-09-30T01:27:42.669Z,11.70
2018-09-30T01:30:11.201Z,11.70
2018-09-30T01:32:39.485Z,11.60
2018-09-30T01:35:07.730Z,11.90
2018-09-30T01:37:36.037Z,12.00
2018-09-30T01:40:04.289Z,12.20
2018-09-30T01:42:32.722Z,12.20
2018-09-30T01:47:28.915Z,12.00
2018-09-30T01:49:57.109Z,12.00
2018-09-30T01:53:02.330Z,12.10
2018-09-30T01:55:30.537Z,12.00
2018-09-30T01:57:59.133Z,11.50
2018-09-30T02:00:27.330Z,11.50
2018-09-30T02:02:55.557Z,11.50
2018-09-30T02:05:23.757Z,11.40
2018-09-30T02:07:52.021Z,11.10
2018-09-30T02:10:20.314Z,11.00
2018-09-30T02:12:48.514Z,11.00
2018-09-30T02:15:16.745Z,10.90
2018-09-30T02:17:44.979Z,10.90
2018-09-30T02:20:13.220Z,11.00
2018-09-30T02:22:41.457Z,11.10
2018-09-30T02:25:09.662Z,11.30
2018-09-30T02:27:37.869Z,11.00
2018-09-30T02:32:34.033Z,11.20
2018-09-30T02:35:02.317Z,11.10
2018-09-30T02:37:30.622Z,10.80
2018-09-30T02:39:58.861Z,10.90
2018-09-30T02:42:27.165Z,11.20
2018-09-30T02:44:55.411Z,11.20
2018-09-30T02:47:23.632Z,11.40
2018-09-30T02:49:51.869Z,11.50
2018-09-30T02:52:20.089Z,11.50
2018-09-30T02:54:48.329Z,11.40
2018-09-30T02:57:16.628Z,11.20
2018-09-30T02:59:44.873Z,11.10
2018-09-30T03:02:13.153Z,11.00
2018-09-30T03:04:41.369Z,11.10
2018-09-30T03:07:15.018Z,11.00
2018-09-30T03:09:43.617Z,11.00
2018-09-30T03:12:12.049Z,10.70
2018-09-30T03:14:40.396Z,10.20
2018-09-30T03:17:08.585Z,10.20
2018-09-30T03:19:36.926Z,10.40
2018-09-30T03:22:05.120Z,10.40
2018-09-30T03:24:33.395Z,10.50
2018-09-30T03:27:01.596Z,10.50
2018-09-30T03:29:29.845Z,10.10
2018-09-30T03:31:58.119Z,9.70
2018-09-30T03:34:26.401Z,9.50
2018-09-30T03:36:54.607Z,9.70
2018-09-30T03:41:50.798Z,10.40
2018-09-30T03:44:18.995Z,10.40
2018-09-30T03:46:47.206Z,10.30
2018-09-30T03:49:15.473Z,10.30
2018-09-30T03:51:43.722Z,10.40
2018-09-30T03:54:11.986Z,10.30
2018-09-30T03:59:08.322Z,9.60
2018-09-30T04:01:36.519Z,9.80
2018-09-30T04:04:04.774Z,9.90
2018-09-30T04:06:32.989Z,10.00
2018-09-30T04:09:01.288Z,10.10
2018-09-30T04:13:57.603Z,10.10
2018-09-30T04:16:25.880Z,10.10
2018-09-30T04:21:22.177Z,10.30
2018-09-30T04:23:54.885Z,10.10
2018-09-30T04:26:23.145Z,9.90
2018-09-30T04:28:51.465Z,9.70
2018-09-30T04:31:19.681Z,9.40
2018-09-30T04:33:47.905Z,9.60
2018-09-30T04:36:16.114Z,9.90
2018-09-30T04:38:44.365Z,9.80
2018-09-30T04:41:12.620Z,10.00
2018-09-30T04:43:40.867Z,10.10
2018-09-30T04:46:09.125Z,10.00
2018-09-30T04:48:37.335Z,9.80
2018-09-30T04:51:05.541Z,9.70
2018-09-30T04:53:33.822Z,9.70
2018-09-30T04:58:30.081Z,9.90
2018-09-30T05:03:26.261Z,9.90
2018-09-30T05:05:54.595Z,9.90
2018-09-30T05:08:22.822Z,9.90
2018-09-30T05:10:51.089Z,10.20
2018-09-30T05:13:19.343Z,10.10
2018-09-30T05:15:47.650Z,10.10
2018-09-30T05:18:15.854Z,9.80
2018-09-30T05:20:44.147Z,9.70
2018-09-30T05:23:12.369Z,9.90
2018-09-30T05:25:40.769Z,9.90
2018-09-30T05:28:08.914Z,9.70
2018-09-30T05:30:37.181Z,9.30
2018-09-30T05:33:05.416Z,9.20
2018-09-30T05:35:33.666Z,9.20
2018-09-30T05:38:01.938Z,9.20
2018-09-30T05:40:30.364Z,9.10
2018-09-30T05:42:58.569Z,8.90
2018-09-30T05:45:26.904Z,9.00
2018-09-30T06:00:15.035Z,9.30
2018-09-30T06:05:11.253Z,9.90
2018-09-30T06:07:39.524Z,9.60
2018-09-30T06:10:07.805Z,9.50
2018-09-30T06:12:36.021Z,9.70
2018-09-30T06:17:32.278Z,10.10
2018-09-30T06:20:00.489Z,9.70
2018-09-30T06:22:28.758Z,9.40
2018-09-30T06:24:56.971Z,9.70
2018-09-30T06:27:25.218Z,9.80
2018-09-30T06:29:53.506Z,9.80
2018-09-30T06:32:21.732Z,9.80
2018-09-30T06:34:49.964Z,10.20
2018-09-30T06:37:18.267Z,10.30
2018-09-30T06:44:42.521Z,11.10
2018-09-30T06:47:10.730Z,11.30
2018-09-30T06:52:06.998Z,11.70
2018-09-30T06:54:35.346Z,11.80
2018-09-30T06:59:31.794Z,12.10
2018-09-30T07:02:00.016Z,12.30
2018-09-30T07:04:28.303Z,12.30
2018-09-30T07:06:56.605Z,12.40
2018-09-30T07:14:20.934Z,12.60
2018-09-30T07:16:49.238Z,12.80
2018-09-30T07:19:17.433Z,12.90
2018-09-30T07:21:45.714Z,13.30
2018-09-30T07:24:13.953Z,13.60
2018-09-30T07:26:42.185Z,13.60
2018-09-30T07:29:10.410Z,13.70
2018-09-30T07:31:38.665Z,13.90
2018-09-30T07:34:07.321Z,13.90
2018-09-30T07:39:03.742Z,14.50
2018-09-30T07:41:31.993Z,14.50
2018-09-30T07:44:00.249Z,14.50
2018-09-30T07:46:28.540Z,14.60
2018-09-30T07:48:56.749Z,14.50
2018-09-30T07:53:53.071Z,14.70
2018-09-30T07:56:21.305Z,15.10
2018-09-30T07:58:49.533Z,15.30
2018-09-30T08:01:17.788Z,15.10
2018-09-30T08:03:46.387Z,15.00
2018-09-30T08:06:14.648Z,15.50
2018-09-30T08:08:42.858Z,15.70
2018-09-30T08:11:11.314Z,15.90
2018-09-30T08:13:39.509Z,15.80
2018-09-30T08:16:08.093Z,15.80
2018-09-30T08:18:36.389Z,15.70
2018-09-30T08:21:04.695Z,15.80
2018-09-30T08:23:33.003Z,16.30
2018-09-30T08:26:01.332Z,16.40
2018-09-30T08:28:29.593Z,16.40
2018-09-30T08:30:57.921Z,16.60
2018-09-30T08:33:26.265Z,17.00
2018-09-30T08:36:00.026Z,17.10
2018-09-30T08:38:31.101Z,16.90
2018-09-30T08:41:04.449Z,17.30
2018-09-30T08:43:33.813Z,17.20
2018-09-30T08:46:02.245Z,17.30
2018-09-30T08:48:30.514Z,17.90
2018-09-30T08:50:58.807Z,18.20
2018-09-30T08:53:27.247Z,18.90
2018-09-30T08:55:56.364Z,19.10
2018-09-30T08:58:25.422Z,19.60
2018-09-30T09:00:53.665Z,20.40
2018-09-30T09:03:21.917Z,20.80
2018-09-30T09:05:50.173Z,21.00
2018-09-30T09:08:18.440Z,20.90
2018-09-30T09:10:46.921Z,20.20
2018-09-30T09:13:15.197Z,19.20
2018-09-30T09:15:43.593Z,18.60
2018-09-30T09:18:12.321Z,19.10
2018-09-30T09:20:40.566Z,19.70
2018-09-30T09:23:08.931Z,19.50
2018-09-30T09:25:37.329Z,19.00
2018-09-30T09:28:05.911Z,19.30
2018-09-30T09:30:34.135Z,19.40
2018-09-30T09:33:02.425Z,19.80
2018-09-30T09:35:30.761Z,20.00
2018-09-30T09:37:58.987Z,20.20
2018-09-30T09:40:27.233Z,20.40
2018-09-30T09:42:55.514Z,21.00
2018-09-30T09:45:23.735Z,21.00
2018-09-30T09:47:51.946Z,21.30
2018-09-30T09:50:20.221Z,21.00
2018-09-30T09:52:48.462Z,21.70
2018-09-30T09:55:16.783Z,22.10
2018-09-30T09:57:45.040Z,22.10
2018-09-30T10:00:17.492Z,22.00
2018-09-30T10:02:45.795Z,22.90
2018-09-30T10:05:14.158Z,22.10
2018-09-30T10:07:42.761Z,21.40
2018-09-30T10:10:10.982Z,22.30
2018-09-30T10:12:39.222Z,22.50
2018-09-30T10:15:07.429Z,22.50
2018-09-30T10:17:35.718Z,22.50
2018-09-30T10:20:03.930Z,21.80
2018-09-30T10:22:32.225Z,21.90
2018-09-30T10:25:00.561Z,22.60
2018-09-30T10:27:28.866Z,22.60
2018-09-30T10:29:57.082Z,23.10
2018-09-30T10:32:25.658Z,23.10
2018-09-30T10:34:53.898Z,22.00
2018-09-30T10:37:22.174Z,21.40
2018-09-30T10:39:50.492Z,20.60
2018-09-30T10:42:18.718Z,20.80
2018-09-30T10:44:46.951Z,21.10
2018-09-30T10:47:15.320Z,20.80
2018-09-30T10:49:43.554Z,20.70
2018-09-30T10:52:11.830Z,19.90
2018-09-30T10:54:40.094Z,19.40
2018-09-30T10:57:08.301Z,19.40
2018-09-30T10:59:36.630Z,19.40
2018-09-30T11:02:04.937Z,19.40
2018-09-30T11:04:33.248Z,19.80
2018-09-30T11:07:01.717Z,19.90
2018-09-30T11:09:30.090Z,20.60
2018-09-30T11:11:58.267Z,21.10
2018-09-30T11:14:26.555Z,21.60
2018-09-30T11:16:54.931Z,21.40
2018-09-30T11:19:23.309Z,21.00
2018-09-30T11:21:51.509Z,21.00
2018-09-30T11:24:19.862Z,21.00
2018-09-30T11:26:48.093Z,21.10
2018-09-30T11:29:16.291Z,21.70
2018-09-30T11:31:44.594Z,21.20
2018-09-30T11:34:12.811Z,20.80
2018-09-30T11:36:41.009Z,20.40
2018-09-30T11:39:10.585Z,21.00
2018-09-30T11:41:38.917Z,21.00
2018-09-30T11:44:07.144Z,21.20
2018-09-30T11:46:35.426Z,21.20
2018-09-30T11:49:03.629Z,21.60
2018-09-30T11:51:31.845Z,22.00
2018-09-30T11:54:00.100Z,21.90
2018-09-30T11:56:28.333Z,21.20
2018-09-30T11:58:56.566Z,20.70
2018-09-30T12:01:24.959Z,20.20
2018-09-30T12:03:53.162Z,20.20
2018-09-30T12:06:21.397Z,20.60
2018-09-30T12:08:49.705Z,21.00
2018-09-30T12:11:17.938Z,21.00
2018-09-30T12:13:46.213Z,20.20
2018-09-30T12:16:14.457Z,20.10
2018-09-30T12:18:42.823Z,20.30
2018-09-30T12:21:11.014Z,20.30
2018-09-30T12:23:39.261Z,20.10
2018-09-30T12:26:07.878Z,20.30
2018-09-30T12:28:36.122Z,20.50
2018-09-30T12:31:04.501Z,20.20
2018-09-30T12:33:32.800Z,20.20
2018-09-30T12:36:01.114Z,19.60
2018-09-30T12:38:29.357Z,19.70
2018-09-30T12:40:57.599Z,20.00
2018-09-30T12:43:25.817Z,20.00
2018-09-30T12:45:54.084Z,20.00
2018-09-30T12:48:22.342Z,20.00
2018-09-30T12:50:50.639Z,19.40
2018-09-30T12:53:18.846Z,19.90
2018-09-30T12:55:47.110Z,20.10
2018-09-30T12:58:15.369Z,20.00
2018-09-30T13:00:43.617Z,19.60
2018-09-30T13:03:11.822Z,19.20
2018-09-30T13:05:40.085Z,19.20
2018-09-30T13:08:08.360Z,19.20
2018-09-30T13:10:36.625Z,19.20
2018-09-30T13:13:04.872Z,19.70
2018-09-30T13:15:33.126Z,19.50
2018-09-30T13:18:01.386Z,19.40
2018-09-30T13:20:29.618Z,19.50
2018-09-30T13:22:57.854Z,19.70
2018-09-30T13:25:26.146Z,20.10
2018-09-30T13:27:54.520Z,20.30
2018-09-30T13:30:22.774Z,19.40
2018-09-30T13:32:51.142Z,19.10
2018-09-30T13:35:19.357Z,19.00
2018-09-30T13:37:47.613Z,18.90
2018-09-30T13:40:16.022Z,18.50
2018-09-30T13:42:44.094Z,18.30
2018-09-30T13:45:12.396Z,18.40
2018-09-30T13:47:40.631Z,19.00
2018-09-30T13:50:08.837Z,18.50
2018-09-30T13:52:37.181Z,18.70
2018-09-30T13:55:05.482Z,17.90
2018-09-30T13:57:33.785Z,17.40
2018-09-30T14:00:02.161Z,17.50
2018-09-30T14:02:30.417Z,17.50
2018-09-30T14:04:58.730Z,17.80
2018-09-30T14:07:27.044Z,17.70
2018-09-30T14:09:55.278Z,17.50
2018-09-30T14:12:23.503Z,17.80
2018-09-30T14:14:51.752Z,17.20
2018-09-30T14:17:19.974Z,17.10
2018-09-30T14:19:48.230Z,17.20
2018-09-30T14:22:16.494Z,17.20
2018-09-30T14:24:44.783Z,17.30
2018-09-30T14:27:13.082Z,17.60
2018-09-30T14:29:41.273Z,17.50
2018-09-30T14:32:09.614Z,17.30
2018-09-30T14:34:37.973Z,17.50
2018-09-30T14:37:06.412Z,17.50
2018-09-30T14:39:34.644Z,17.70
2018-09-30T14:42:02.929Z,17.70
2018-09-30T14:44:31.259Z,17.60
2018-09-30T14:46:59.618Z,17.80
2018-09-30T14:49:27.828Z,17.90
2018-09-30T14:51:56.052Z,17.40
2018-09-30T14:54:24.519Z,17.10
2018-09-30T14:56:52.742Z,17.20
2018-09-30T14:59:21.017Z,17.30
2018-09-30T15:01:49.297Z,17.00
2018-09-30T15:04:17.517Z,17.20
2018-09-30T15:06:45.802Z,17.20
2018-09-30T15:09:15.538Z,17.80
2018-09-30T15:11:43.866Z,18.10
2018-09-30T15:14:12.170Z,17.90
2018-09-30T15:16:40.639Z,17.70
2018-09-30T15:19:08.880Z,18.00
2018-09-30T15:21:37.127Z,17.80
2018-09-30T15:24:05.394Z,17.40
2018-09-30T15:26:33.682Z,17.40
2018-09-30T15:29:01.907Z,18.00
2018-09-30T15:31:30.154Z,18.10
2018-09-30T15:33:58.392Z,18.00
2018-09-30T15:36:26.621Z,18.10
2018-09-30T15:38:54.939Z,17.80
2018-09-30T15:41:23.155Z,17.90
2018-09-30T15:43:52.436Z,18.20
2018-09-30T15:46:20.671Z,18.30
2018-09-30T15:48:48.921Z,18.30
2018-09-30T15:51:17.139Z,18.10
2018-09-30T15:53:45.389Z,18.30
2018-09-30T15:56:13.718Z,17.60
2018-09-30T15:58:41.977Z,17.70
2018-09-30T16:01:10.191Z,17.80
2018-09-30T16:03:38.514Z,17.50
2018-09-30T16:06:06.829Z,17.30
2018-09-30T16:08:35.116Z,17.30
2018-09-30T16:11:03.375Z,17.50
2018-09-30T16:13:31.578Z,17.50
2018-09-30T16:15:59.801Z,17.70
2018-09-30T16:18:28.033Z,17.60
2018-09-30T16:20:56.253Z,17.50
2018-09-30T16:23:24.555Z,17.50
2018-09-30T16:25:52.778Z,17.40
2018-09-30T16:28:21.268Z,17.30
2018-09-30T16:30:49.468Z,17.20
2018-09-30T16:33:17.921Z,17.30
2018-09-30T16:35:46.155Z,17.40
2018-09-30T16:38:14.365Z,17.20
2018-09-30T16:40:42.641Z,17.20
2018-09-30T16:43:10.889Z,17.40
2018-09-30T16:45:39.203Z,17.40
2018-09-30T16:48:07.446Z,17.20
2018-09-30T16:50:35.739Z,17.10
2018-09-30T16:53:04.032Z,16.90
2018-09-30T16:55:32.287Z,17.10
2018-09-30T16:58:00.653Z,17.30
2018-09-30T17:00:28.937Z,17.20
2018-09-30T17:02:57.213Z,17.20
2018-09-30T17:05:25.528Z,17.10
2018-09-30T17:07:53.846Z,17.00
2018-09-30T17:10:22.125Z,16.80
2018-09-30T17:12:50.396Z,17.00
2018-09-30T17:15:18.737Z,17.00
2018-09-30T17:17:47.058Z,17.20
2018-09-30T17:20:15.355Z,17.30
2018-09-30T17:22:43.570Z,17.20
2018-09-30T17:25:12.128Z,17.30
2018-09-30T17:27:40.466Z,17.10
2018-09-30T17:30:08.722Z,16.90
2018-09-30T17:32:36.964Z,16.70
2018-09-30T17:35:05.470Z,16.90
2018-09-30T17:37:33.727Z,17.00
2018-09-30T17:40:01.988Z,17.00
2018-09-30T17:42:30.637Z,17.00
2018-09-30T17:44:58.984Z,17.30
2018-09-30T17:47:27.205Z,17.20
2018-09-30T17:49:55.425Z,16.70
2018-09-30T17:52:24.007Z,16.50
2018-09-30T17:54:52.320Z,16.60
2018-09-30T17:57:20.657Z,17.00
2018-09-30T17:59:49.283Z,17.10
2018-09-30T18:02:17.701Z,17.20
2018-09-30T18:04:46.057Z,17.00
2018-09-30T18:07:14.306Z,17.00
2018-09-30T18:09:43.146Z,17.00
2018-09-30T18:12:11.403Z,17.20
2018-09-30T18:14:39.622Z,17.20
2018-09-30T18:17:08.534Z,17.40
2018-09-30T18:19:36.831Z,17.30
2018-09-30T18:22:05.105Z,16.90
2018-09-30T18:24:33.361Z,16.90
2018-09-30T18:27:01.677Z,17.10
2018-09-30T18:29:29.981Z,16.90
2018-09-30T18:31:58.245Z,16.80
2018-09-30T18:34:26.612Z,16.90
2018-09-30T18:36:55.111Z,16.40
2018-09-30T18:39:23.479Z,15.90
2018-09-30T18:41:51.780Z,15.80
2018-09-30T18:44:20.184Z,15.40
2018-09-30T18:46:48.485Z,15.40
2018-09-30T18:49:16.778Z,15.50
2018-09-30T18:51:45.070Z,15.90
2018-09-30T18:54:13.341Z,15.90
2018-09-30T18:56:41.567Z,15.80
2018-09-30T18:59:10.297Z,15.90
2018-09-30T19:01:38.750Z,15.50
2018-09-30T19:04:07.061Z,15.80
2018-09-30T19:06:35.350Z,16.10
2018-09-30T19:09:04.680Z,15.90
2018-09-30T19:11:32.978Z,15.80
2018-09-30T19:14:01.317Z,15.60
2018-09-30T19:16:29.620Z,15.40
2018-09-30T19:18:57.914Z,15.60
2018-09-30T19:21:26.174Z,15.60
2018-09-30T19:23:54.463Z,15.40
2018-09-30T19:26:22.746Z,15.60
2018-09-30T19:28:51.159Z,15.40
2018-09-30T19:31:19.549Z,15.40
2018-09-30T19:33:47.800Z,15.60
2018-09-30T19:36:16.196Z,15.70
2018-09-30T19:38:44.419Z,15.90
2018-09-30T19:41:12.658Z,15.60
2018-09-30T19:43:40.869Z,15.70
2018-09-30T19:46:09.618Z,15.50
2018-09-30T19:48:37.892Z,15.90
2018-09-30T19:51:06.151Z,15.80
2018-09-30T19:53:34.706Z,15.70
2018-09-30T19:56:02.973Z,15.70
2018-09-30T19:58:31.501Z,15.80
2018-09-30T20:00:59.879Z,15.80
2018-09-30T20:03:28.120Z,15.50
2018-09-30T20:05:56.409Z,15.90
2018-09-30T20:08:24.698Z,15.90
2018-09-30T20:10:53.021Z,16.10
2018-09-30T20:13:21.242Z,15.90
2018-09-30T20:15:49.701Z,15.80
2018-09-30T20:18:17.994Z,15.70
2018-09-30T20:20:46.273Z,15.50
2018-09-30T20:23:14.430Z,15.50
2018-09-30T20:25:42.698Z,15.70
2018-09-30T20:28:10.922Z,15.80
2018-09-30T20:33:07.373Z,15.80
2018-09-30T20:35:35.585Z,15.80
2018-09-30T20:38:03.959Z,15.80
2018-09-30T20:40:32.246Z,15.50
2018-09-30T20:43:01.301Z,15.00
2018-09-30T20:45:29.629Z,14.70
2018-09-30T20:47:57.852Z,14.80
2018-09-30T20:50:26.449Z,14.90
2018-09-30T20:52:54.654Z,14.70
2018-09-30T20:55:23.142Z,14.70
2018-09-30T20:57:51.414Z,14.80
2018-09-30T21:00:19.810Z,14.90
2018-09-30T21:02:48.148Z,14.60
2018-09-30T21:05:27.010Z,14.40
2018-09-30T21:07:55.405Z,14.40
2018-09-30T21:10:23.676Z,14.60
2018-09-30T21:12:51.885Z,15.00
2018-09-30T21:15:20.174Z,15.00
2018-09-30T21:17:48.516Z,14.90
2018-09-30T21:20:16.734Z,15.00
2018-09-30T21:22:44.965Z,15.20
2018-09-30T21:25:13.210Z,15.20
2018-09-30T21:27:41.475Z,15.30
2018-09-30T21:30:09.822Z,15.50
2018-09-30T21:32:38.049Z,15.60
2018-09-30T21:35:06.416Z,15.40
2018-09-30T21:37:34.708Z,15.30
2018-09-30T21:40:02.954Z,15.30
2018-09-30T21:42:31.154Z,15.50
2018-09-30T21:44:59.383Z,15.40
2018-09-30T21:47:27.591Z,15.60
2018-09-30T21:49:55.889Z,15.70
2018-09-30T21:52:24.150Z,15.50
2018-09-30T21:54:52.421Z,15.50
2018-09-30T21:57:20.712Z,15.70
2018-09-30T21:59:49.780Z,15.60
2018-09-30T22:02:18.046Z,15.40
2018-09-30T22:04:46.279Z,15.60
2018-09-30T22:07:14.528Z,15.60
2018-09-30T22:09:42.794Z,15.50
2018-09-30T22:12:11.044Z,15.60
2018-09-30T22:14:39.277Z,15.60
2018-09-30T22:17:07.578Z,15.30
2018-09-30T22:19:35.821Z,15.50
2018-09-30T22:22:04.537Z,15.40
2018-09-30T22:24:32.820Z,15.20
2018-09-30T22:27:01.155Z,15.40
2018-09-30T22:29:29.326Z,15.60
2018-09-30T22:31:57.566Z,15.50
2018-09-30T22:34:25.869Z,15.20
2018-09-30T22:36:54.122Z,15.40
2018-09-30T22:39:22.394Z,15.30
2018-09-30T22:41:50.725Z,15.10
2018-09-30T22:44:18.994Z,15.10
2018-09-30T22:46:47.209Z,15.20
2018-09-30T22:49:15.428Z,15.30
2018-09-30T22:51:43.658Z,15.20
2018-09-30T22:54:11.870Z,15.10
2018-09-30T22:56:40.233Z,15.10
2018-09-30T22:59:08.581Z,15.10
2018-09-30T23:01:37.958Z,15.20
2018-09-30T23:04:07.174Z,15.20
2018-09-30T23:06:35.406Z,15.00
2018-09-30T23:09:05.389Z,14.60
2018-09-30T23:11:33.665Z,14.60
2018-09-30T23:14:01.920Z,14.80
2018-09-30T23:16:30.159Z,15.00
2018-09-30T23:18:58.390Z,14.70
2018-09-30T23:21:26.620Z,14.70
2018-09-30T23:23:54.814Z,14.60
2018-09-30T23:26:23.074Z,14.50
2018-09-30T23:28:51.298Z,14.30
2018-09-30T23:31:19.521Z,14.40
2018-09-30T23:33:47.744Z,14.70
2018-09-30T23:36:15.990Z,14.70
2018-09-30T23:38:44.271Z,15.00
2018-09-30T23:41:12.518Z,15.30
2018-09-30T23:43:40.845Z,15.10
2018-09-30T23:46:09.149Z,15.20
2018-09-30T23:48:37.502Z,15.60
2018-09-30T23:51:06.666Z,15.60
2018-09-30T23:53:34.924Z,15.20
2018-09-30T23:56:03.226Z,14.70
2018-09-30T23:58:31.497Z,14.60
